CFG129 EDDV-EDDH
Flight info
| Callsign | CFG129 |
|---|---|
| Flight time | 0h 26m |
| Altitude | 23000 |
| Route | CEL6Y CEL Q282 DIRBO T902 RARUP RARUP3D |
| Aircraft | A339/H-SADE1E2E3GHIJ3J5M1P2RWXY/LB2D1 |
Departure
| Time | 2026-05-01 12:26 |
|---|---|
| Airport | Hannover Airport (EDDV) |
Arrival
| Time | 2026-05-01 12:53 |
|---|---|
| Airport | Hamburg Helmut Schmidt Airport (EDDH) |
| Time | Latitude | Longitude | Altitude | Speed | Heading |
|---|---|---|---|---|---|
| 2026-05-01 12:08 | 52.45985 | 9.69132 | 211 ft | 0 kts | 268° |
| 2026-05-01 12:22 | 52.45985 | 9.69113 | 184 ft | 6 kts | 268° |
| 2026-05-01 12:22 | 52.45958 | 9.69069 | 198 ft | 6 kts | 214° |
| 2026-05-01 12:22 | 52.45918 | 9.69072 | 201 ft | 8 kts | 161° |
| 2026-05-01 12:23 | 52.45840 | 9.69170 | 196 ft | 21 kts | 143° |
| 2026-05-01 12:23 | 52.45714 | 9.69145 | 186 ft | 15 kts | 205° |
| 2026-05-01 12:23 | 52.45633 | 9.69109 | 196 ft | 11 kts | 226° |
| 2026-05-01 12:23 | 52.45626 | 9.68938 | 196 ft | 13 kts | 270° |
| 2026-05-01 12:24 | 52.45626 | 9.68831 | 196 ft | 15 kts | 270° |
| 2026-05-01 12:24 | 52.45636 | 9.68654 | 184 ft | 16 kts | 273° |
| 2026-05-01 12:24 | 52.45642 | 9.68455 | 197 ft | 19 kts | 273° |
| 2026-05-01 12:24 | 52.45647 | 9.68231 | 184 ft | 21 kts | 271° |
| 2026-05-01 12:25 | 52.45653 | 9.67991 | 184 ft | 22 kts | 273° |
| 2026-05-01 12:25 | 52.45526 | 9.67708 | 199 ft | 13 kts | 171° |
| 2026-05-01 12:25 | 52.45497 | 9.67789 | 193 ft | 7 kts | 89° |
| 2026-05-01 12:26 | 52.45494 | 9.67875 | 189 ft | 6 kts | 94° |
| 2026-05-01 12:26 | 52.45454 | 9.69203 | 201 ft | 141 kts | 92° |
| 2026-05-01 12:26 | 52.45418 | 9.70992 | 899 ft | 160 kts | 92° |
| 2026-05-01 12:27 | 52.45368 | 9.72883 | 1872 ft | 169 kts | 94° |
| 2026-05-01 12:27 | 52.45234 | 9.77100 | 3508 ft | 202 kts | 95° |
| 2026-05-01 12:28 | 52.45106 | 9.81902 | 3989 ft | 214 kts | 95° |
| 2026-05-01 12:28 | 52.45039 | 9.84336 | 3992 ft | 213 kts | 95° |
| 2026-05-01 12:28 | 52.44889 | 9.89209 | 3996 ft | 213 kts | 94° |
| 2026-05-01 12:29 | 52.45170 | 9.91582 | 4017 ft | 219 kts | 66° |
| 2026-05-01 12:29 | 52.46217 | 9.93460 | 4384 ft | 230 kts | 33° |
| 2026-05-01 12:29 | 52.49361 | 9.95694 | 5486 ft | 268 kts | 25° |
| 2026-05-01 12:30 | 52.52139 | 9.99681 | 6950 ft | 267 kts | 68° |
| 2026-05-01 12:30 | 52.53128 | 10.02123 | 8036 ft | 258 kts | 48° |
| 2026-05-01 12:30 | 52.54606 | 10.03695 | 9141 ft | 253 kts | 24° |
| 2026-05-01 12:31 | 52.56330 | 10.04140 | 10177 ft | 254 kts | 2° |
| 2026-05-01 12:31 | 52.58139 | 10.04394 | 10555 ft | 270 kts | 19° |
| 2026-05-01 12:31 | 52.59836 | 10.05848 | 10842 ft | 285 kts | 44° |
| 2026-05-01 12:31 | 52.61138 | 10.08400 | 11083 ft | 302 kts | 57° |
| 2026-05-01 12:32 | 52.62716 | 10.10865 | 11242 ft | 330 kts | 37° |
| 2026-05-01 12:32 | 52.67090 | 10.12608 | 12192 ft | 359 kts | 356° |
| 2026-05-01 12:32 | 52.69515 | 10.11544 | 12857 ft | 366 kts | 337° |
| 2026-05-01 12:33 | 52.71766 | 10.09543 | 13526 ft | 370 kts | 331° |
| 2026-05-01 12:33 | 52.74085 | 10.07628 | 14172 ft | 374 kts | 338° |
| 2026-05-01 12:33 | 52.76499 | 10.06168 | 14818 ft | 375 kts | 344° |
| 2026-05-01 12:33 | 52.79017 | 10.05054 | 15474 ft | 376 kts | 348° |
| 2026-05-01 12:34 | 52.81585 | 10.04134 | 16047 ft | 378 kts | 350° |
| 2026-05-01 12:34 | 52.84167 | 10.03299 | 16285 ft | 379 kts | 351° |
| 2026-05-01 12:34 | 52.86761 | 10.02485 | 16370 ft | 380 kts | 351° |
| 2026-05-01 12:34 | 52.89353 | 10.01669 | 16373 ft | 379 kts | 351° |
| 2026-05-01 12:35 | 52.91949 | 10.00843 | 16375 ft | 380 kts | 350° |
| 2026-05-01 12:35 | 52.94543 | 10.00012 | 16379 ft | 380 kts | 350° |
| 2026-05-01 12:35 | 52.97134 | 9.99171 | 16372 ft | 380 kts | 350° |
| 2026-05-01 12:35 | 52.99726 | 9.98329 | 16377 ft | 380 kts | 350° |
| 2026-05-01 12:36 | 53.02320 | 9.97486 | 16375 ft | 380 kts | 350° |
| 2026-05-01 12:36 | 53.04879 | 9.96651 | 16372 ft | 380 kts | 350° |
| 2026-05-01 12:36 | 53.07475 | 9.95802 | 16379 ft | 382 kts | 350° |
| 2026-05-01 12:36 | 53.10130 | 9.94937 | 16376 ft | 393 kts | 350° |
| 2026-05-01 12:37 | 53.12813 | 9.94063 | 16372 ft | 392 kts | 350° |
| 2026-05-01 12:37 | 53.15258 | 9.93308 | 16379 ft | 388 kts | 350° |
| 2026-05-01 12:37 | 53.17915 | 9.92435 | 16375 ft | 392 kts | 349° |
| 2026-05-01 12:37 | 53.20596 | 9.91534 | 16376 ft | 393 kts | 349° |
| 2026-05-01 12:38 | 53.23263 | 9.90638 | 16188 ft | 386 kts | 349° |
| 2026-05-01 12:38 | 53.25845 | 9.89775 | 15691 ft | 371 kts | 349° |
| 2026-05-01 12:38 | 53.28330 | 9.88950 | 15084 ft | 358 kts | 350° |
| 2026-05-01 12:38 | 53.30706 | 9.88165 | 14496 ft | 347 kts | 350° |
| 2026-05-01 12:39 | 53.33044 | 9.87398 | 13878 ft | 338 kts | 350° |
| 2026-05-01 12:39 | 53.35323 | 9.86644 | 13240 ft | 330 kts | 350° |
| 2026-05-01 12:39 | 53.37547 | 9.85906 | 12593 ft | 322 kts | 350° |
| 2026-05-01 12:39 | 53.39744 | 9.85177 | 11974 ft | 322 kts | 350° |
| 2026-05-01 12:40 | 53.41946 | 9.84440 | 11349 ft | 322 kts | 350° |
| 2026-05-01 12:40 | 53.44136 | 9.83718 | 10753 ft | 320 kts | 350° |
| 2026-05-01 12:40 | 53.46318 | 9.82992 | 10155 ft | 319 kts | 350° |
| 2026-05-01 12:40 | 53.48484 | 9.82272 | 9504 ft | 313 kts | 350° |
| 2026-05-01 12:41 | 53.50591 | 9.81576 | 8843 ft | 304 kts | 350° |
| 2026-05-01 12:41 | 53.52614 | 9.80909 | 8241 ft | 296 kts | 350° |
| 2026-05-01 12:41 | 53.54616 | 9.80240 | 7686 ft | 291 kts | 349° |
| 2026-05-01 12:41 | 53.56608 | 9.79572 | 7457 ft | 292 kts | 349° |
| 2026-05-01 12:42 | 53.58599 | 9.78906 | 7374 ft | 292 kts | 349° |
| 2026-05-01 12:42 | 53.60607 | 9.78256 | 7339 ft | 294 kts | 350° |
| 2026-05-01 12:42 | 53.62619 | 9.77613 | 7032 ft | 293 kts | 350° |
| 2026-05-01 12:42 | 53.64597 | 9.76980 | 6693 ft | 285 kts | 349° |
| 2026-05-01 12:43 | 53.66511 | 9.76380 | 6337 ft | 274 kts | 350° |
| 2026-05-01 12:43 | 53.68287 | 9.75821 | 5996 ft | 264 kts | 350° |
| 2026-05-01 12:43 | 53.70074 | 9.75265 | 5645 ft | 258 kts | 350° |
| 2026-05-01 12:43 | 53.71822 | 9.74722 | 5299 ft | 254 kts | 350° |
| 2026-05-01 12:44 | 53.73548 | 9.74184 | 4941 ft | 250 kts | 350° |
| 2026-05-01 12:44 | 53.75247 | 9.73657 | 4604 ft | 247 kts | 349° |
| 2026-05-01 12:44 | 53.78584 | 9.72621 | 3873 ft | 239 kts | 350° |
| 2026-05-01 12:45 | 53.81783 | 9.71642 | 3234 ft | 232 kts | 350° |
| 2026-05-01 12:45 | 53.83338 | 9.71166 | 3008 ft | 221 kts | 349° |
| 2026-05-01 12:45 | 53.84799 | 9.70719 | 3014 ft | 214 kts | 351° |
| 2026-05-01 12:46 | 53.86300 | 9.70638 | 3002 ft | 218 kts | 13° |
| 2026-05-01 12:46 | 53.87617 | 9.71766 | 3013 ft | 210 kts | 45° |
| 2026-05-01 12:46 | 53.88343 | 9.73770 | 3019 ft | 196 kts | 78° |
| 2026-05-01 12:46 | 53.88286 | 9.76000 | 3008 ft | 192 kts | 112° |
| 2026-05-01 12:47 | 53.87559 | 9.77876 | 3005 ft | 187 kts | 136° |
| 2026-05-01 12:47 | 53.86509 | 9.79208 | 3006 ft | 190 kts | 149° |
| 2026-05-01 12:47 | 53.85346 | 9.80272 | 3009 ft | 191 kts | 153° |
| 2026-05-01 12:47 | 53.84161 | 9.81288 | 2998 ft | 187 kts | 154° |
| 2026-05-01 12:48 | 53.82987 | 9.82304 | 3006 ft | 192 kts | 153° |
| 2026-05-01 12:48 | 53.81808 | 9.83333 | 2996 ft | 193 kts | 153° |
| 2026-05-01 12:48 | 53.80649 | 9.84334 | 3029 ft | 182 kts | 153° |
| 2026-05-01 12:48 | 53.79550 | 9.85267 | 2921 ft | 171 kts | 154° |
| 2026-05-01 12:49 | 53.78523 | 9.86182 | 2797 ft | 162 kts | 150° |
| 2026-05-01 12:49 | 53.77557 | 9.87023 | 2677 ft | 155 kts | 153° |
| 2026-05-01 12:49 | 53.76582 | 9.87853 | 2494 ft | 156 kts | 155° |
| 2026-05-01 12:49 | 53.75627 | 9.88682 | 2299 ft | 157 kts | 152° |
| 2026-05-01 12:50 | 53.74596 | 9.89568 | 2076 ft | 172 kts | 154° |
| 2026-05-01 12:50 | 53.73548 | 9.90492 | 1841 ft | 167 kts | 152° |
| 2026-05-01 12:50 | 53.72530 | 9.91351 | 1637 ft | 161 kts | 152° |
| 2026-05-01 12:50 | 53.71592 | 9.92190 | 1431 ft | 144 kts | 153° |
| 2026-05-01 12:51 | 53.70755 | 9.92912 | 1242 ft | 132 kts | 153° |
| 2026-05-01 12:51 | 53.69919 | 9.93634 | 1071 ft | 140 kts | 152° |
| 2026-05-01 12:51 | 53.68222 | 9.95109 | 728 ft | 141 kts | 150° |
| 2026-05-01 12:52 | 53.67352 | 9.95866 | 515 ft | 138 kts | 153° |
| 2026-05-01 12:52 | 53.65654 | 9.97322 | 164 ft | 135 kts | 150° |
| 2026-05-01 12:52 | 53.64868 | 9.98017 | 65 ft | 118 kts | 152° |
| 2026-05-01 12:53 | 53.63939 | 9.98939 | 49 ft | 48 kts | 124° |
| 2026-05-01 12:53 | 53.63769 | 9.99332 | 46 ft | 29 kts | 127° |
| 2026-05-01 12:53 | 53.63666 | 9.99572 | 47 ft | 24 kts | 126° |
| 2026-05-01 12:54 | 53.63630 | 9.99657 | 47 ft | 0 kts | 125° |
| 2026-05-01 12:56 | 53.63621 | 9.99680 | 47 ft | 5 kts | 125° |
| 2026-05-01 12:57 | 53.63554 | 9.99840 | 50 ft | 27 kts | 125° |
| 2026-05-01 12:57 | 53.63321 | 10.00196 | 47 ft | 18 kts | 166° |
| 2026-05-01 12:57 | 53.63291 | 10.00318 | 52 ft | 10 kts | 84° |
| 2026-05-01 12:58 | 53.63291 | 10.00347 | 52 ft | 0 kts | 90° |